• Join FlightAware (Why Join?)
  • Login
  • US Flag 
10:05AM EDT


 

Airport Tracker/Info


-or-


 

Live Flight TrackerFlight Track Log ✈ GJS3710 ✈ 17-Jun-2013 ✈ KORD - KALB

Flight Track Log - Related Links

Times and Time Zones

All times are in EDT time to prevent confusion due to time zone crossing. See the GJS3710 flight status page for this flight to view local times or setup timezone preferences in your user account.

Time Position Orientation Groundspeed Altitude Reporting Facility
EDT Latitude Longitude Course Direction KTS MPH feet Rate Location/Type
11:13PM 42.0000 -87.8833 86° East 150 173 2,100  Level Chicago TRACON
11:14PM 42.0189 -87.8111 71° East 194 223 3,700 1,920 Climbing Chicago Center
11:15PM 42.1301 -87.4519 63° Northeast  Level FlightAware Approximate
11:15PM 42.0447 -87.6967 73° East 266 306 6,300  Level Chicago Center
11:16PM 42.1842 -87.2975 66° East  Level FlightAware Approximate
11:16PM 42.0822 -87.6022 62° Northeast 285 328 8,900  Level Chicago Center
11:17PM 42.2361 -87.1416 66° East  Level FlightAware Approximate
11:17PM 42.1208 -87.4986 63° Northeast 306 352 11,800  Level Chicago Center
11:18PM 42.2677 -86.9794 86° East  Level FlightAware Approximate
11:18PM 42.1586 -87.3931 64° Northeast 313 360 14,100  Level Chicago Center
11:19PM 42.2033 -87.2711 64° Northeast 358 412 15,200 1,260 Climbing Chicago Center
11:20PM 42.2514 -87.1369 64° Northeast 395 455 16,700 1,500 Climbing Chicago Center
11:21PM 42.2817 -86.9875 75° East 418 481 18,300 1,440 Climbing Chicago Center
11:22PM 42.2892 -86.8208 86° East 443 510 19,700 1,440 Climbing Chicago Center
11:23PM 42.2958 -86.6356 87° East 458 527 21,300 1,380 Climbing Chicago Center
11:24PM 42.3036 -86.4667 86° East 472 543 22,600 1,440 Climbing Chicago Center
11:25PM 42.3108 -86.2522 87° East 479 551 24,300 1,500 Climbing Chicago Center
11:26PM 42.3167 -86.0703 87° East 487 560 25,700 1,260 Climbing Chicago Center
11:27PM 42.3139 -85.8872 91° East 491 565 27,000 1,200 Climbing Chicago Center
11:28PM 42.3117 -85.7003 91° East 499 574 28,200 1,020 Climbing Chicago Center
11:29PM 42.3092 -85.5097 91° East 508 585 29,100 780 Climbing Chicago Center
11:30PM 42.3064 -85.3161 91° East 517 595 29,900 720 Climbing Chicago Center
11:31PM 42.3039 -85.1164 91° East 530 610 30,600 660 Climbing Chicago Center
11:32PM 42.2992 -84.9128 92° East 542 624 31,300 780 Climbing Chicago Center
11:33PM 42.2933 -84.6678 92° East 546 628 32,300 780 Climbing Chicago Center
11:34PM 42.2892 -84.4622 92° East 549 632 33,000 660 Climbing Chicago Center
11:35PM 42.3039 -84.3089 83° East 544 626 33,600 540 Climbing Cleveland Center
11:36PM 42.3356 -84.1031 78° East 549 632 34,000 180 Climbing Cleveland Center
11:37PM 42.3667 -83.8911 79° East 562 647 34,000 180 Level Cleveland Center
11:38PM 42.3975 -83.6844 79° East 562 647 34,400 660 Climbing Cleveland Center
11:39PM 42.4114 -83.4742 85° East 562 647 35,400 960 Climbing Cleveland Center
11:40PM 42.4186 -83.2636 87° East 556 640 36,400 900 Climbing Cleveland Center
11:41PM 42.4253 -83.0531 87° East 551 634 37,200 780 Climbing Cleveland Center
11:42PM 42.4336 -82.8478 87° East 551 634 38,000 720 Climbing Cleveland Center
11:43PM 42.4378 -82.6397 88° East 551 634 38,700 480 Climbing Cleveland Center
11:44PM 42.4453 -82.4375 87° East 551 634 39,000 120 Climbing Cleveland Center
11:45PM 42.4483 -82.2264 89° East 546 628 39,000  Level Cleveland Center
11:46PM 42.4556 -81.9986 87° East 551 634 39,000  Level Cleveland Center
11:47PM 42.4600 -81.7989 88° East 557 641 39,000  Level Cleveland Center
11:48PM 42.4686 -81.5683 87° East 557 641 39,000  Level Cleveland Center
11:49PM 42.4722 -81.3517 89° East 557 641 39,000  Level Cleveland Center
11:50PM 42.4756 -81.1406 89° East 571 657 39,000  Level Cleveland Center
11:51PM 42.4783 -80.9464 89° East 571 657 39,000  Level Cleveland Center
11:52PM 42.4808 -80.7325 89° East 571 657 39,000  Level Cleveland Center
11:53PM 42.4831 -80.5183 89° East 573 659 39,000  Level Cleveland Center
11:54PM 42.4850 -80.3017 89° East 568 654 39,000  Level Cleveland Center
11:55PM 42.4861 -80.0819 90° East 573 659 39,000  Level Cleveland Center
11:56PM 42.4914 -79.8736 88° East 568 654 39,000  Level Cleveland Center
11:57PM 42.4897 -79.6511 91° East 568 654 39,000  Level Cleveland Center
11:58PM 42.4942 -79.4372 88° East 573 659 39,000  Level Cleveland Center
11:59PM 42.4942 -79.2400 90° East 568 654 39,000  Level Cleveland Center
12:00AM 42.5117 -78.9861 85° East 576 663 39,000  Level Cleveland Center
12:01AM 42.5256 -78.7997 84° East 570 656 39,000  Level Cleveland Center
12:02AM 42.5406 -78.5656 85° East 570 656 39,000  Level Cleveland Center
12:03AM 42.5533 -78.3536 85° East 565 650 39,000 -300 Level Cleveland Center
12:04AM 42.5658 -78.1417 85° East 560 644 38,400 -840 Descending Cleveland Center
12:05AM 42.5797 -77.9242 85° East 567 652 37,400 -1,020 Descending Cleveland Center
12:06AM 42.5933 -77.7064 85° East 574 661 36,400 -1,020 Descending Cleveland Center
12:07AM 42.6042 -77.4831 86° East 586 674 35,400 -1,020 Descending Cleveland Center
12:09AM 42.6219 -77.1417 86° East 610 702 33,900 -1,020 Descending Boston Center
12:10AM 42.6333 -76.9167 86° East 596 686 32,900 -1,020 Descending Boston Center
12:11AM 42.6458 -76.6972 85° East 591 680 31,900 -1,020 Descending Boston Center
12:12AM 42.6561 -76.4722 86° East 586 674 30,900 -1,020 Descending Boston Center
12:13AM 42.6678 -76.2525 86° East 586 674 29,900 -1,200 Descending Boston Center
12:14AM 42.6767 -76.0439 87° East 572 658 28,600 -1,620 Descending Boston Center
12:15AM 42.6850 -75.8411 87° East 560 644 26,700 -2,220 Descending Boston Center
12:16AM 42.6928 -75.6494 87° East 535 616 24,200 -2,280 Descending Boston Center
12:17AM 42.7000 -75.4633 87° East 504 580 22,200 -2,040 Descending Boston Center
12:18AM 42.7044 -75.2853 88° East 485 558 20,200 -2,040 Descending Boston Center
12:19AM 42.7128 -75.1133 86° East 468 539 18,200 -1,980 Descending Boston Center
12:19AM 42.7167 -75.0344 86° East 467 537 17,300 -1,800 Descending Boston Center
12:20AM 42.7169 -74.9383 90° East 457 526 16,400 -1,800 Descending Boston Center
12:20AM 42.7189 -74.8478 88° East 454 522 15,500 -1,620 Descending Boston Center
12:21AM 42.7222 -74.7886 86° East 452 520 14,800 -1,800 Descending Boston Center
12:21AM 42.7283 -74.6844 85° East 441 507 13,700 -2,040 Descending Boston Center
12:22AM 42.7278 -74.6081 91° East 441 507 12,800 -1,500 Descending Boston Center
12:22AM 42.7314 -74.5289 86° East 413 475 12,200 -1,080 Descending Boston Center
12:23AM 42.7297 -74.3819 91° East 377 434 11,200 -1,560 Descending Boston Center
12:24AM 42.7131 -74.2628 101° East 305 351 9,100 -2,160 Descending Boston Center
12:25AM 42.6961 -74.1464 101° East 307 353 6,900 -2,340 Descending Boston Center
12:26AM 42.6853 -74.0331 97° East 299 344 4,500 -1,440 Descending Boston Center
12:27AM 42.6678 -73.9253 102° East 256 295 4,000 -900 Descending Boston Center
12:28AM 42.6586 -73.8433 99° East 206 237 2,700 -1,260 Descending Boston Center
12:29AM 42.6778 -73.8042 56° Northeast 125 144 1,500 -960 Descending Boston Center
12:30AM 42.7194 -73.8078 356° North 116 133 700 -720 Descending Boston Center